Time;durP1;ratioP1;P1;durP2;ratioP2;P2;SDS_P1;SDS_P2;PMS_P1;PMS_P2;Temp;Humidity;BMP_temperature;BMP_pressure;BME280_temperature;BME280_humidity;BME280_pressure;Samples;Min_cycle;Max_cycle;Signal;HPM_P1;HPM_P2
2021/06/16 00:03:05;;;;;;;9.10;2.17;;;18.30;99.90;;;;;;4997460;28;20303;-85
2021/06/16 00:06:28;;;;;;;4.00;2.20;;;18.40;99.90;;;;;;5016162;28;20707;-85
2021/06/16 00:09:28;;;;;;;5.63;2.45;;;18.30;99.90;;;;;;5012833;28;20717;-85
2021/06/16 00:13:05;;;;;;;6.68;2.42;;;18.20;99.90;;;;;;5001132;28;20219;-86
2021/06/16 00:15:45;;;;;;;5.60;2.85;;;18.10;99.90;;;;;;4985189;28;20220;-85
2021/06/16 00:18:16;;;;;;;4.55;2.38;;;18.00;99.90;;;;;;4998456;28;20248;-85
2021/06/16 00:20:45;;;;;;;4.40;1.98;;;18.10;99.90;;;;;;4981500;28;20204;-85
2021/06/16 00:23:16;;;;;;;4.13;2.35;;;18.00;99.90;;;;;;5013750;28;20206;-85
2021/06/16 00:25:57;;;;;;;3.92;2.80;;;18.00;99.90;;;;;;5015464;28;20243;-86
2021/06/16 00:28:38;;;;;;;4.20;2.17;;;17.90;99.90;;;;;;5008712;28;20212;-85
2021/06/16 00:31:16;;;;;;;4.68;2.50;;;17.90;99.90;;;;;;4981633;28;20220;-85
2021/06/16 00:34:12;;;;;;;4.47;2.03;;;17.80;99.90;;;;;;4997445;28;20227;-85
2021/06/16 00:37:17;;;;;;;5.50;1.98;;;17.90;99.90;;;;;;4997594;28;20247;-85
2021/06/16 00:40:35;;;;;;;4.75;2.05;;;17.90;99.90;;;;;;4975908;28;20206;-85
2021/06/16 00:43:19;;;;;;;5.93;1.98;;;17.90;99.90;;;;;;4993080;28;20197;-85
2021/06/16 00:46:13;;;;;;;6.40;2.10;;;17.80;99.90;;;;;;4996955;28;20664;-86
2021/06/16 00:49:24;;;;;;;3.88;2.47;;;17.70;99.90;;;;;;4998119;28;20770;-85
2021/06/16 00:55:27;;;;;;;4.57;2.45;;;17.70;99.90;;;;;;4996542;28;20280;-85
2021/06/16 00:57:58;;;;;;;6.45;2.58;;;17.50;99.90;;;;;;4980366;28;20217;-85
2021/06/16 01:00:28;;;;;;;5.03;2.00;;;17.40;99.90;;;;;;4997308;28;20211;-86
2021/06/16 01:03:04;;;;;;;5.60;2.33;;;17.30;99.90;;;;;;5014278;28;20287;-85
2021/06/16 01:05:39;;;;;;;5.57;2.70;;;17.50;99.90;;;;;;4980063;28;20226;-84
2021/06/16 01:08:08;;;;;;;5.85;2.78;;;17.50;99.90;;;;;;4996548;28;20203;-85
2021/06/16 01:10:41;;;;;;;4.03;1.95;;;17.40;99.90;;;;;;4996184;28;20288;-85
2021/06/16 01:13:16;;;;;;;5.22;2.33;;;17.30;99.90;;;;;;4996923;28;20667;-85
2021/06/16 01:15:50;;;;;;;4.35;2.17;;;17.20;99.90;;;;;;5014041;28;20475;-84
2021/06/16 01:18:21;;;;;;;6.53;1.98;;;17.20;99.90;;;;;;4996033;28;20247;-85
2021/06/16 01:20:50;;;;;;;6.85;1.75;;;17.00;99.90;;;;;;4996236;28;20224;-84
2021/06/16 01:23:43;;;;;;;3.40;2.30;;;16.60;99.90;;;;;;5013904;28;20292;-85
2021/06/16 01:26:29;;;;;;;4.28;2.30;;;16.50;99.90;;;;;;4995622;28;20228;-85
2021/06/16 01:29:02;;;;;;;5.63;2.20;;;16.10;99.90;;;;;;5013283;28;20385;-85
2021/06/16 01:31:30;;;;;;;5.60;2.70;;;16.00;99.90;;;;;;5013265;28;20756;-85
2021/06/16 01:33:59;;;;;;;3.33;1.85;;;16.00;99.90;;;;;;4996213;28;20208;-84
2021/06/16 01:36:27;;;;;;;4.45;2.47;;;15.70;99.90;;;;;;5013645;28;20283;-84
2021/06/16 01:38:55;;;;;;;6.15;2.65;;;15.60;99.90;;;;;;4997700;28;20304;-85
2021/06/16 01:41:25;;;;;;;2.70;2.00;;;15.60;99.90;;;;;;5001349;28;20200;-81
2021/06/16 01:43:55;;;;;;;5.40;2.13;;;15.70;99.90;;;;;;5002677;28;20224;-81
2021/06/16 01:46:24;;;;;;;3.25;2.53;;;15.60;99.90;;;;;;5002165;28;20216;-81
2021/06/16 01:48:52;;;;;;;3.25;1.70;;;15.60;99.90;;;;;;5002092;28;20196;-81
2021/06/16 01:51:21;;;;;;;4.13;2.00;;;15.60;99.90;;;;;;4985761;28;20196;-81
2021/06/16 01:53:50;;;;;;;3.72;2.20;;;15.60;99.90;;;;;;5001701;28;20204;-81
2021/06/16 01:56:18;;;;;;;3.47;2.00;;;15.70;99.90;;;;;;5001704;28;20268;-82
2021/06/16 01:58:47;;;;;;;2.72;2.03;;;15.80;99.90;;;;;;5002089;28;20224;-81
2021/06/16 02:01:16;;;;;;;5.70;2.47;;;15.70;99.90;;;;;;5026406;28;20196;-81
2021/06/16 02:03:44;;;;;;;3.17;2.10;;;15.90;99.90;;;;;;5031891;28;20247;-80
2021/06/16 02:06:11;;;;;;;2.42;1.85;;;16.00;99.90;;;;;;5031774;28;20239;-81
2021/06/16 02:08:39;;;;;;;5.32;2.30;;;15.90;99.90;;;;;;5030507;28;20571;-80
2021/06/16 02:11:06;;;;;;;2.97;2.40;;;15.80;99.90;;;;;;5031437;28;20196;-81
2021/06/16 02:13:37;;;;;;;5.13;2.47;;;15.80;99.90;;;;;;5008186;28;20232;-81
2021/06/16 02:16:08;;;;;;;2.05;1.77;;;15.80;99.90;;;;;;5001181;28;20220;-81
2021/06/16 02:18:41;;;;;;;3.60;2.47;;;15.70;99.90;;;;;;5002159;28;20224;-80
2021/06/16 02:21:09;;;;;;;3.38;2.33;;;15.70;99.90;;;;;;5002583;28;20220;-81
2021/06/16 02:23:36;;;;;;;5.50;2.45;;;15.40;99.90;;;;;;5019418;28;20196;-81
2021/06/16 02:26:03;;;;;;;2.47;2.28;;;15.30;99.90;;;;;;5019057;28;20578;-81
2021/06/16 02:28:30;;;;;;;5.78;2.03;;;15.30;99.90;;;;;;5001609;28;20220;-81
2021/06/16 02:30:58;;;;;;;8.35;2.85;;;15.20;99.90;;;;;;5001120;28;20195;-81
2021/06/16 02:33:28;;;;;;;6.68;2.95;;;15.00;99.90;;;;;;5018830;28;20201;-81
2021/06/16 02:35:55;;;;;;;6.60;2.47;;;15.10;99.90;;;;;;5018229;28;20209;-82
2021/06/16 02:38:25;;;;;;;2.85;2.22;;;15.10;99.90;;;;;;5005027;28;20288;-81
2021/06/16 02:40:54;;;;;;;4.68;2.33;;;15.00;99.90;;;;;;4988587;28;20686;-81
2021/06/16 02:43:22;;;;;;;6.32;3.20;;;14.80;99.90;;;;;;5022227;28;20695;-82
2021/06/16 02:45:51;;;;;;;8.25;2.88;;;14.70;99.90;;;;;;5021347;28;20227;-81
2021/06/16 02:48:20;;;;;;;4.55;2.35;;;14.90;99.90;;;;;;5005224;28;20204;-81
2021/06/16 02:50:51;;;;;;;4.97;2.10;;;15.10;99.90;;;;;;5022544;28;20209;-81
2021/06/16 02:53:22;;;;;;;3.38;3.00;;;15.20;99.90;;;;;;5018508;28;20713;-80
2021/06/16 02:55:51;;;;;;;3.05;2.10;;;15.40;99.90;;;;;;5021588;28;20225;-80
2021/06/16 02:58:19;;;;;;;2.40;2.05;;;15.30;99.90;;;;;;5022725;28;20283;-80
2021/06/16 03:00:54;;;;;;;5.28;2.80;;;15.40;99.90;;;;;;5036874;28;20193;-80
2021/06/16 03:03:23;;;;;;;4.25;2.85;;;15.50;99.90;;;;;;5021811;28;20212;-79
2021/06/16 03:05:52;;;;;;;5.65;2.58;;;15.50;99.90;;;;;;5040626;28;20204;-79
2021/06/16 03:08:23;;;;;;;3.55;2.58;;;15.50;99.90;;;;;;5040843;28;20199;-80
2021/06/16 03:10:50;;;;;;;5.00;2.80;;;15.50;99.90;;;;;;5040184;28;20188;-82
2021/06/16 03:13:19;;;;;;;6.75;2.67;;;15.40;99.90;;;;;;5039124;28;20220;-81
2021/06/16 03:15:48;;;;;;;6.30;2.83;;;15.40;99.90;;;;;;5020977;28;20224;-79
2021/06/16 03:18:16;;;;;;;2.63;2.05;;;15.40;99.90;;;;;;4975611;28;20201;-80
2021/06/16 03:20:44;;;;;;;5.43;2.63;;;15.40;99.90;;;;;;4985286;28;20228;-80
2021/06/16 03:23:15;;;;;;;5.20;3.08;;;15.50;99.90;;;;;;4986173;28;20221;-80
2021/06/16 03:25:44;;;;;;;3.65;2.97;;;15.40;99.90;;;;;;5000700;28;20237;-80
2021/06/16 03:28:12;;;;;;;5.70;2.58;;;15.40;99.90;;;;;;4972503;28;20197;-81
2021/06/16 03:30:40;;;;;;;5.07;2.55;;;15.50;99.90;;;;;;4985042;28;20731;-80
2021/06/16 03:33:08;;;;;;;3.72;3.00;;;15.50;99.90;;;;;;4997148;28;20283;-82
2021/06/16 03:35:36;;;;;;;3.90;2.30;;;15.40;99.90;;;;;;5018838;28;20283;-81
2021/06/16 03:38:04;;;;;;;3.95;2.83;;;15.30;99.90;;;;;;5020670;28;20199;-80
2021/06/16 03:40:33;;;;;;;4.32;2.97;;;15.40;99.90;;;;;;5003395;28;20223;-80
2021/06/16 03:43:02;;;;;;;4.95;2.75;;;15.40;99.90;;;;;;5021019;28;20201;-81
2021/06/16 03:45:30;;;;;;;4.65;2.65;;;15.50;99.90;;;;;;5000596;28;20224;-80
2021/06/16 03:48:01;;;;;;;3.28;2.45;;;15.60;99.90;;;;;;5013687;28;20204;-81
2021/06/16 03:50:29;;;;;;;7.30;2.88;;;15.60;99.90;;;;;;5006782;28;20201;-81
2021/06/16 03:52:57;;;;;;;4.53;2.42;;;15.70;99.90;;;;;;5006123;28;20220;-81
2021/06/16 03:55:25;;;;;;;5.45;3.40;;;15.80;99.90;;;;;;5023387;28;20778;-81
2021/06/16 03:57:54;;;;;;;4.55;2.90;;;15.70;99.90;;;;;;5024513;28;20203;-81
2021/06/16 04:00:23;;;;;;;6.43;3.17;;;15.60;99.90;;;;;;5005499;28;20224;-81
2021/06/16 04:02:50;;;;;;;5.00;3.20;;;15.70;99.90;;;;;;5022931;28;20193;-81
2021/06/16 04:05:19;;;;;;;5.22;3.55;;;15.70;99.90;;;;;;5007942;28;20726;-81
2021/06/16 04:07:50;;;;;;;5.95;3.28;;;15.70;99.90;;;;;;5025367;28;20284;-81
2021/06/16 04:10:20;;;;;;;5.07;3.50;;;15.60;99.90;;;;;;5023901;28;20201;-81
2021/06/16 04:12:47;;;;;;;5.80;3.70;;;15.60;99.90;;;;;;5006374;28;20197;-82
2021/06/16 04:15:17;;;;;;;3.65;2.58;;;15.60;99.90;;;;;;5021685;28;20271;-81
2021/06/16 04:17:46;;;;;;;3.10;2.30;;;15.50;99.90;;;;;;5006815;28;20568;-81
2021/06/16 04:20:15;;;;;;;6.03;2.67;;;15.60;99.90;;;;;;5024134;28;20694;-82
2021/06/16 04:22:42;;;;;;;5.03;3.05;;;15.70;99.90;;;;;;5024960;28;20197;-81
2021/06/16 04:25:11;;;;;;;3.08;2.42;;;15.80;99.90;;;;;;4991482;28;20220;-81
2021/06/16 04:27:39;;;;;;;6.43;3.08;;;15.90;99.90;;;;;;5007934;28;20200;-80
2021/06/16 04:30:12;;;;;;;8.73;3.33;;;16.00;99.90;;;;;;5026039;28;20612;-80
2021/06/16 04:32:42;;;;;;;4.28;3.35;;;16.00;99.90;;;;;;5023879;28;20217;-81
2021/06/16 04:35:11;;;;;;;4.03;3.13;;;16.10;99.90;;;;;;5007086;28;20220;-81
2021/06/16 04:37:38;;;;;;;4.88;2.92;;;16.20;99.90;;;;;;5024841;28;20220;-81
2021/06/16 04:40:07;;;;;;;5.68;3.00;;;16.30;99.90;;;;;;5008365;28;20217;-80
2021/06/16 04:42:34;;;;;;;5.65;3.30;;;16.40;99.90;;;;;;5015632;28;20204;-81
2021/06/16 04:45:02;;;;;;;4.80;3.20;;;16.40;99.90;;;;;;5015387;28;20239;-81
2021/06/16 04:47:29;;;;;;;6.25;4.03;;;16.50;99.90;;;;;;5015836;28;20203;-80
2021/06/16 04:49:58;;;;;;;8.45;4.20;;;16.70;99.90;;;;;;5033471;28;20641;-81
2021/06/16 04:52:25;;;;;;;5.82;2.90;;;16.80;99.90;;;;;;5017584;28;20220;-81
2021/06/16 04:54:52;;;;;;;5.07;4.60;;;16.70;99.90;;;;;;5010430;28;20222;-81
2021/06/16 04:57:19;;;;;;;8.93;5.75;;;16.70;99.90;;;;;;5006474;28;20324;-81
2021/06/16 04:59:47;;;;;;;7.95;3.63;;;16.70;99.90;;;;;;5005804;28;20223;-81
2021/06/16 05:02:15;;;;;;;4.45;3.28;;;16.80;99.90;;;;;;5024526;28;20265;-81
2021/06/16 05:04:42;;;;;;;5.78;3.55;;;16.90;99.90;;;;;;5006668;28;20224;-81
2021/06/16 05:07:12;;;;;;;4.70;3.70;;;16.90;99.90;;;;;;4987414;28;20220;-81
2021/06/16 05:09:39;;;;;;;5.25;3.03;;;16.80;99.90;;;;;;5003104;28;20196;-81
2021/06/16 05:12:07;;;;;;;7.38;4.28;;;16.90;99.90;;;;;;5002321;28;20224;-80
2021/06/16 05:14:34;;;;;;;6.10;4.15;;;17.00;99.90;;;;;;4987258;28;20244;-80
2021/06/16 05:17:02;;;;;;;7.38;3.92;;;17.10;99.90;;;;;;5004459;28;20686;-81
2021/06/16 05:19:29;;;;;;;12.20;10.82;;;17.20;99.90;;;;;;5004283;28;20227;-81
2021/06/16 05:22:04;;;;;;;9.18;6.70;;;17.20;99.90;;;;;;5021042;28;20220;-80
2021/06/16 05:24:33;;;;;;;7.07;5.28;;;17.30;99.90;;;;;;5006250;28;20239;-80
2021/06/16 05:27:00;;;;;;;5.25;4.00;;;17.40;99.90;;;;;;5027820;28;20234;-81
2021/06/16 05:29:28;;;;;;;8.43;4.05;;;17.50;99.90;;;;;;5002750;28;20279;-81
2021/06/16 05:31:55;;;;;;;5.80;3.58;;;17.60;99.90;;;;;;5002355;28;20221;-81
2021/06/16 05:34:22;;;;;;;11.20;4.60;;;17.60;99.90;;;;;;5001270;28;20228;-81
2021/06/16 05:36:49;;;;;;;18.95;15.52;;;17.70;99.90;;;;;;5021420;28;20199;-80
2021/06/16 05:39:16;;;;;;;16.05;9.85;;;17.60;99.90;;;;;;4986651;28;20204;-80
2021/06/16 05:41:45;;;;;;;12.02;9.13;;;17.80;99.90;;;;;;5003436;28;20284;-80
2021/06/16 05:44:12;;;;;;;8.32;5.25;;;17.70;99.90;;;;;;5002384;28;20192;-80
2021/06/16 05:46:39;;;;;;;6.50;4.53;;;17.70;99.90;;;;;;5022949;28;20718;-80
2021/06/16 05:49:06;;;;;;;5.90;4.53;;;17.80;99.90;;;;;;5019832;28;20201;-81
2021/06/16 05:51:34;;;;;;;7.25;4.07;;;17.80;99.90;;;;;;5002176;28;20189;-79
2021/06/16 05:54:01;;;;;;;6.45;4.43;;;17.90;99.90;;;;;;5002181;28;20483;-80
2021/06/16 05:56:28;;;;;;;7.32;4.85;;;18.10;99.90;;;;;;4986461;28;20205;-81
2021/06/16 05:58:57;;;;;;;6.00;4.63;;;18.10;99.90;;;;;;5001781;28;20196;-80
2021/06/16 06:01:24;;;;;;;9.57;6.15;;;18.20;99.90;;;;;;5002491;28;20682;-80
2021/06/16 06:03:51;;;;;;;8.35;4.55;;;18.40;99.90;;;;;;5020164;28;20219;-80
2021/06/16 06:06:18;;;;;;;6.07;3.85;;;18.40;99.90;;;;;;5007353;28;20241;-80
2021/06/16 06:08:47;;;;;;;5.47;4.00;;;18.50;99.90;;;;;;4999679;28;20251;-80
2021/06/16 06:11:14;;;;;;;7.60;4.88;;;18.50;99.90;;;;;;4994524;28;20200;-79
2021/06/16 06:13:41;;;;;;;6.68;4.43;;;18.60;99.90;;;;;;5006188;28;20229;-80
2021/06/16 06:16:10;;;;;;;10.35;4.45;;;18.80;99.90;;;;;;4998307;28;20288;-80
2021/06/16 06:18:38;;;;;;;6.20;4.97;;;18.80;99.90;;;;;;5022813;28;20219;-80
2021/06/16 06:21:05;;;;;;;7.95;4.32;;;18.50;99.90;;;;;;5006795;28;20271;-80
2021/06/16 06:23:32;;;;;;;8.45;5.63;;;18.20;99.90;;;;;;5024741;28;20265;-80
2021/06/16 06:25:59;;;;;;;7.95;5.40;;;18.30;99.90;;;;;;5006848;28;20499;-80
2021/06/16 06:28:27;;;;;;;9.63;5.28;;;18.30;99.90;;;;;;4990001;28;20204;-81
2021/06/16 06:30:54;;;;;;;5.55;4.20;;;18.40;99.90;;;;;;5005031;28;20224;-80
2021/06/16 06:33:22;;;;;;;9.18;4.85;;;18.60;99.90;;;;;;5007075;28;20250;-81
2021/06/16 06:35:49;;;;;;;9.07;4.35;;;18.80;99.90;;;;;;5005560;28;20607;-80
2021/06/16 06:38:17;;;;;;;7.47;4.25;;;19.00;99.90;;;;;;5026344;28;20247;-81
2021/06/16 06:40:44;;;;;;;4.90;3.95;;;19.10;99.90;;;;;;5006886;28;20279;-82
2021/06/16 06:43:11;;;;;;;5.53;3.42;;;19.30;99.90;;;;;;5026788;28;20197;-81
2021/06/16 06:45:38;;;;;;;6.53;3.78;;;19.40;99.90;;;;;;5019131;28;20221;-81
2021/06/16 06:48:06;;;;;;;7.60;4.18;;;19.30;99.90;;;;;;5024503;28;20215;-79
2021/06/16 06:50:34;;;;;;;5.50;3.97;;;19.50;99.90;;;;;;5001672;28;20240;-80
2021/06/16 06:53:01;;;;;;;5.10;4.00;;;19.60;99.90;;;;;;5010366;28;20204;-81
2021/06/16 06:55:29;;;;;;;5.47;3.83;;;19.70;99.90;;;;;;5032695;28;20224;-81
2021/06/16 06:57:57;;;;;;;9.38;4.35;;;19.80;99.90;;;;;;5007797;28;20232;-79
2021/06/16 07:00:24;;;;;;;9.82;5.15;;;20.00;99.90;;;;;;5034077;28;20220;-80
2021/06/16 07:02:51;;;;;;;5.07;3.88;;;19.80;99.90;;;;;;5043101;28;20231;-79
2021/06/16 07:05:18;;;;;;;5.88;3.90;;;19.90;99.90;;;;;;5031714;28;20224;-79
2021/06/16 07:07:47;;;;;;;8.35;4.43;;;20.10;99.90;;;;;;5033342;28;20203;-80
2021/06/16 07:10:14;;;;;;;10.70;3.92;;;20.30;99.90;;;;;;5031970;28;20351;-81
2021/06/16 07:12:42;;;;;;;10.70;4.68;;;20.40;99.90;;;;;;5014729;28;20216;-80
2021/06/16 07:15:11;;;;;;;6.75;4.05;;;20.60;99.90;;;;;;5049216;28;20665;-81
2021/06/16 07:17:38;;;;;;;8.75;4.93;;;20.70;99.90;;;;;;5023652;28;20412;-82
2021/06/16 07:20:08;;;;;;;4.45;3.10;;;20.80;99.90;;;;;;5003173;28;20213;-81
2021/06/16 07:22:35;;;;;;;15.80;12.48;;;20.80;99.90;;;;;;4992027;28;20201;-78
2021/06/16 07:25:04;;;;;;;11.05;5.45;;;21.00;99.90;;;;;;4997373;28;20213;-80
2021/06/16 07:27:31;;;;;;;7.32;4.38;;;21.00;99.90;;;;;;5040676;28;20204;-80
2021/06/16 07:29:58;;;;;;;8.18;4.22;;;21.10;99.90;;;;;;5024395;28;20189;-81
2021/06/16 07:32:26;;;;;;;10.77;4.50;;;21.20;99.90;;;;;;5023097;28;20196;-82
2021/06/16 07:34:53;;;;;;;6.97;4.32;;;21.40;99.90;;;;;;5027765;28;20223;-81
2021/06/16 07:37:26;;;;;;;8.93;4.80;;;21.40;99.90;;;;;;5017369;28;20203;-80
2021/06/16 07:39:54;;;;;;;6.43;3.70;;;21.50;99.90;;;;;;5033555;28;20200;-82
2021/06/16 07:42:23;;;;;;;8.18;3.85;;;21.70;99.90;;;;;;5003280;28;20621;-79
2021/06/16 07:44:50;;;;;;;5.22;3.38;;;21.80;99.90;;;;;;5019016;28;20235;-80
2021/06/16 07:47:17;;;;;;;7.40;4.28;;;22.00;99.90;;;;;;5022968;28;20581;-83
2021/06/16 07:49:44;;;;;;;7.82;3.78;;;22.00;99.90;;;;;;5015200;28;20284;-77
2021/06/16 07:52:11;;;;;;;8.55;4.03;;;22.20;99.90;;;;;;5017810;28;20207;-77
2021/06/16 07:54:38;;;;;;;4.78;3.42;;;22.30;99.90;;;;;;4994720;28;20311;-77
2021/06/16 07:57:05;;;;;;;3.78;3.08;;;22.30;99.90;;;;;;5015843;28;20232;-77
2021/06/16 07:59:34;;;;;;;5.18;3.30;;;22.30;99.90;;;;;;5011528;28;20232;-77
2021/06/16 08:02:03;;;;;;;6.70;3.83;;;22.50;99.90;;;;;;5013089;28;20666;-78
2021/06/16 08:04:32;;;;;;;6.57;3.55;;;22.70;99.90;;;;;;5013196;28;20256;-77
2021/06/16 08:06:59;;;;;;;9.02;3.47;;;22.80;99.90;;;;;;5013086;28;20201;-78
2021/06/16 08:09:26;;;;;;;9.63;3.80;;;22.90;99.90;;;;;;5009617;28;20228;-77
2021/06/16 08:11:53;;;;;;;3.15;2.83;;;23.00;99.90;;;;;;5013897;28;20251;-77
2021/06/16 08:14:20;;;;;;;4.60;2.92;;;23.00;99.90;;;;;;4999645;28;21707;-79
2021/06/16 08:16:48;;;;;;;4.63;2.47;;;23.20;99.90;;;;;;5021228;28;20264;-79
2021/06/16 08:19:15;;;;;;;4.80;2.45;;;23.20;99.90;;;;;;5016530;28;20263;-78
2021/06/16 08:21:42;;;;;;;7.07;3.63;;;23.30;99.90;;;;;;5021360;28;20734;-79
2021/06/16 08:24:09;;;;;;;6.60;3.67;;;23.40;99.90;;;;;;5022843;28;20204;-79
2021/06/16 08:26:37;;;;;;;10.38;4.13;;;23.70;99.90;;;;;;4998963;28;20208;-78
2021/06/16 08:29:04;;;;;;;4.78;3.22;;;23.80;99.90;;;;;;5016092;28;20287;-79
2021/06/16 08:31:31;;;;;;;6.80;3.75;;;23.70;99.90;;;;;;5016497;28;20197;-81
2021/06/16 08:34:00;;;;;;;6.07;3.78;;;23.80;99.90;;;;;;5016040;28;20196;-79
2021/06/16 08:36:29;;;;;;;5.70;2.80;;;24.00;99.90;;;;;;5016655;28;20580;-80
2021/06/16 08:39:04;;;;;;;7.65;3.38;;;24.00;99.90;;;;;;5016723;28;20205;-80
2021/06/16 08:41:32;;;;;;;6.20;3.60;;;24.20;99.90;;;;;;5015711;28;20729;-80
2021/06/16 08:44:00;;;;;;;7.07;3.40;;;24.30;99.90;;;;;;4998691;28;20775;-80
2021/06/16 08:46:27;;;;;;;4.13;2.80;;;24.30;99.90;;;;;;5017291;28;20224;-79
2021/06/16 08:48:54;;;;;;;7.70;3.30;;;24.30;99.90;;;;;;5024500;28;20197;-79
2021/06/16 08:51:31;;;;;;;4.32;2.88;;;24.50;99.90;;;;;;5030395;28;20315;-80
2021/06/16 08:53:58;;;;;;;5.18;3.35;;;24.70;99.90;;;;;;4999374;28;20251;-78
2021/06/16 08:56:25;;;;;;;5.45;3.15;;;24.80;99.90;;;;;;5004848;28;20251;-79
2021/06/16 08:58:52;;;;;;;2.83;2.60;;;25.00;99.90;;;;;;4997136;28;20676;-80
2021/06/16 09:01:20;;;;;;;5.18;3.17;;;24.90;99.90;;;;;;5014385;28;20244;-80
2021/06/16 09:03:47;;;;;;;6.82;3.50;;;25.00;99.90;;;;;;5016460;28;20675;-79
2021/06/16 09:06:16;;;;;;;3.35;3.00;;;25.10;99.90;;;;;;5003082;28;20221;-79
2021/06/16 09:08:56;;;;;;;5.43;3.20;;;25.20;99.90;;;;;;5037951;28;20228;-79
2021/06/16 09:11:27;;;;;;;3.90;2.85;;;25.20;99.90;;;;;;5030869;28;20197;-79
2021/06/16 09:14:11;;;;;;;3.40;2.65;;;25.60;99.90;;;;;;5029489;28;20196;-79
2021/06/16 09:16:38;;;;;;;7.15;3.40;;;25.50;99.90;;;;;;5029527;28;20219;-79
2021/06/16 09:19:18;;;;;;;9.23;4.47;;;25.50;99.90;;;;;;5028476;28;20203;-78
2021/06/16 09:21:45;;;;;;;7.40;4.15;;;25.60;99.90;;;;;;5021101;28;20278;-79
2021/06/16 09:24:14;;;;;;;6.38;3.80;;;25.80;99.90;;;;;;5017254;28;20213;-79
2021/06/16 09:26:43;;;;;;;7.88;3.33;;;25.80;99.90;;;;;;4999177;28;20221;-81
2021/06/16 09:29:12;;;;;;;9.77;4.75;;;26.00;99.90;;;;;;5017433;28;20610;-80
2021/06/16 09:31:41;;;;;;;7.20;4.05;;;26.10;99.90;;;;;;5022242;28;20221;-79
2021/06/16 09:34:10;;;;;;;19.00;4.05;;;26.20;99.90;;;;;;5015157;28;20227;-79
2021/06/16 09:36:49;;;;;;;7.20;3.92;;;26.20;99.90;;;;;;5018857;28;20421;-78
2021/06/16 09:39:20;;;;;;;9.63;4.90;;;26.10;99.90;;;;;;5019040;28;20223;-78
2021/06/16 09:41:54;;;;;;;8.70;4.75;;;26.10;99.90;;;;;;5021076;28;20211;-79
2021/06/16 09:44:38;;;;;;;6.38;4.32;;;26.30;99.90;;;;;;5026889;28;20923;-79
2021/06/16 09:47:14;;;;;;;8.00;4.18;;;26.40;99.90;;;;;;5027364;28;20208;-79
2021/06/16 09:50:05;;;;;;;7.57;5.78;;;26.30;99.90;;;;;;5032185;28;20204;-78
2021/06/16 09:52:35;;;;;;;9.77;5.57;;;26.50;99.90;;;;;;5019153;28;20220;-80
2021/06/16 09:59:35;;;;;;;8.00;5.10;;;26.60;99.90;;;;;;5015488;28;20195;-80
2021/06/16 10:02:29;;;;;;;6.35;5.38;;;26.50;99.90;;;;;;5014160;28;20227;-79
2021/06/16 10:05:23;;;;;;;7.15;4.25;;;26.60;99.90;;;;;;5005256;28;20263;-79
2021/06/16 10:08:23;;;;;;;7.15;4.65;;;26.80;99.90;;;;;;5027984;28;20222;-82
2021/06/16 10:11:23;;;;;;;8.13;4.90;;;26.70;99.90;;;;;;5031834;28;20227;-81
2021/06/16 10:14:14;;;;;;;6.93;4.85;;;26.90;99.90;;;;;;5009774;28;20209;-80
2021/06/16 10:17:08;;;;;;;8.07;5.18;;;27.00;99.90;;;;;;5014410;28;20186;-79
2021/06/16 10:20:01;;;;;;;6.28;3.90;;;27.20;99.90;;;;;;5049978;28;20192;-80
2021/06/16 10:22:52;;;;;;;9.30;5.65;;;27.10;99.90;;;;;;5034835;28;20203;-81
2021/06/16 10:25:45;;;;;;;9.50;4.78;;;27.20;99.90;;;;;;5031541;28;20228;-81
2021/06/16 10:29:05;;;;;;;9.45;5.78;;;27.30;99.90;;;;;;5017934;28;20293;-82
2021/06/16 10:32:24;;;;;;;7.28;5.72;;;27.30;99.90;;;;;;5011225;28;20204;-82
2021/06/16 10:35:43;;;;;;;8.63;5.05;;;27.50;99.90;;;;;;5030339;28;20227;-82
2021/06/16 10:39:14;;;;;;;8.35;5.45;;;27.70;99.90;;;;;;5019212;28;20220;-80
2021/06/16 10:43:14;;;;;;;7.53;5.10;;;27.60;99.90;;;;;;5020159;28;20270;-83
2021/06/16 10:46:50;;;;;;;8.57;5.43;;;27.50;99.90;;;;;;5028265;28;20207;-83
2021/06/16 10:50:09;;;;;;;8.13;6.18;;;27.80;99.90;;;;;;5014763;28;20424;-83
2021/06/16 10:53:26;;;;;;;10.15;6.28;;;28.00;99.90;;;;;;5014911;28;20702;-82
2021/06/16 10:56:44;;;;;;;10.45;6.90;;;28.10;99.90;;;;;;5018238;28;20204;-82
2021/06/16 11:00:14;;;;;;;6.63;5.97;;;28.20;99.90;;;;;;5021398;28;20280;-82
2021/06/16 11:04:04;;;;;;;7.78;6.82;;;28.20;99.90;;;;;;5026525;28;20283;-82
2021/06/16 11:07:47;;;;;;;8.57;7.57;;;28.20;99.90;;;;;;5017292;28;20686;-80
2021/06/16 11:11:04;;;;;;;10.60;5.93;;;28.20;99.90;;;;;;5017120;28;20267;-81
2021/06/16 11:14:49;;;;;;;9.45;6.45;;;28.20;99.90;;;;;;5010189;28;20251;-81
2021/06/16 11:18:27;;;;;;;8.15;6.43;;;28.60;99.90;;;;;;4998835;28;20273;-82
2021/06/16 11:21:43;;;;;;;10.00;6.30;;;28.70;99.90;;;;;;5012810;28;20255;-82
2021/06/16 11:25:28;;;;;;;10.32;7.35;;;29.10;99.90;;;;;;5019829;28;20219;-82
2021/06/16 11:28:45;;;;;;;10.82;7.82;;;29.00;99.90;;;;;;5033357;28;20219;-82
2021/06/16 11:32:12;;;;;;;17.20;9.98;;;29.00;99.90;;;;;;5028795;28;20224;-82
2021/06/16 11:35:38;;;;;;;9.48;7.18;;;29.30;99.90;;;;;;5015541;28;20224;-82
2021/06/16 11:39:01;;;;;;;12.93;9.48;;;29.50;99.90;;;;;;5025646;28;20246;-84
2021/06/16 11:42:21;;;;;;;11.07;7.50;;;29.50;99.90;;;;;;5039076;28;20583;-83
2021/06/16 11:45:39;;;;;;;8.43;7.32;;;29.60;99.90;;;;;;5016248;28;20228;-82
2021/06/16 11:49:03;;;;;;;6.88;6.20;;;29.80;99.90;;;;;;5023707;28;20225;-83
2021/06/16 11:52:21;;;;;;;12.48;8.85;;;29.90;99.90;;;;;;5038770;28;20298;-83
2021/06/16 11:55:42;;;;;;;8.65;6.68;;;30.10;99.90;;;;;;5039491;28;20224;-83
2021/06/16 11:59:01;;;;;;;8.73;7.35;;;30.10;99.90;;;;;;5018958;28;20208;-85
2021/06/16 12:02:22;;;;;;;7.93;6.70;;;30.10;99.90;;;;;;5019557;28;20587;-84
2021/06/16 12:05:40;;;;;;;7.55;6.72;;;30.30;99.90;;;;;;5015970;28;20223;-84
2021/06/16 12:08:58;;;;;;;7.65;6.75;;;30.40;99.90;;;;;;5019607;28;20224;-84
2021/06/16 12:12:16;;;;;;;7.53;6.75;;;30.50;99.90;;;;;;5027504;28;20814;-82
2021/06/16 12:15:57;;;;;;;8.27;6.43;;;30.60;99.90;;;;;;5014603;28;20219;-83
2021/06/16 12:19:17;;;;;;;10.93;7.32;;;30.50;99.90;;;;;;5027914;28;20891;-84
2021/06/16 12:22:34;;;;;;;8.52;6.57;;;30.70;99.90;;;;;;5030901;28;20219;-84
2021/06/16 12:25:52;;;;;;;9.90;6.18;;;30.80;99.90;;;;;;5031528;28;20228;-83
2021/06/16 12:29:09;;;;;;;6.35;5.75;;;30.80;99.90;;;;;;5032142;28;20204;-83
2021/06/16 12:32:32;;;;;;;6.40;5.90;;;31.10;99.90;;;;;;5033351;28;20199;-84
2021/06/16 12:35:59;;;;;;;8.60;6.55;;;31.20;99.90;;;;;;5034450;28;20223;-84
2021/06/16 12:39:17;;;;;;;6.90;5.43;;;31.40;99.90;;;;;;5028536;28;20206;-83
2021/06/16 12:42:43;;;;;;;6.75;6.07;;;31.40;99.90;;;;;;5024709;28;20219;-83
2021/06/16 12:46:01;;;;;;;9.60;6.60;;;31.60;99.90;;;;;;5031764;28;20636;-82
2021/06/16 12:49:20;;;;;;;6.63;5.72;;;31.90;99.90;;;;;;5017243;28;20277;-83
2021/06/16 12:52:38;;;;;;;7.80;6.07;;;32.10;99.90;;;;;;5004948;28;20691;-82
2021/06/16 12:56:00;;;;;;;6.35;5.35;;;32.30;99.90;;;;;;5000411;28;20243;-83
2021/06/16 12:59:18;;;;;;;6.72;6.07;;;32.10;99.90;;;;;;5010605;28;20333;-82
2021/06/16 13:02:35;;;;;;;8.63;6.43;;;31.70;99.90;;;;;;5019671;28;20359;-83
2021/06/16 13:05:55;;;;;;;6.60;6.07;;;32.00;99.90;;;;;;5018328;28;20698;-83
2021/06/16 13:09:23;;;;;;;6.30;5.40;;;32.20;99.90;;;;;;5015644;28;20207;-83
2021/06/16 13:12:57;;;;;;;6.88;6.10;;;32.50;99.90;;;;;;5015773;28;20590;-82
2021/06/16 13:16:25;;;;;;;6.70;5.65;;;32.50;99.90;;;;;;5016952;28;20777;-84
2021/06/16 13:19:55;;;;;;;6.70;5.97;;;32.80;99.90;;;;;;5017479;28;20591;-82
2021/06/16 13:23:15;;;;;;;7.05;6.35;;;32.70;99.90;;;;;;5019809;28;20235;-81
2021/06/16 13:26:33;;;;;;;6.32;5.72;;;32.80;99.90;;;;;;5018831;28;20203;-81
2021/06/16 13:29:59;;;;;;;6.78;6.07;;;33.00;99.90;;;;;;5032720;28;20212;-82
2021/06/16 13:33:27;;;;;;;9.05;7.40;;;33.00;99.90;;;;;;5028386;28;20701;-83
2021/06/16 13:36:29;;;;;;;7.78;7.15;;;33.40;99.90;;;;;;5066877;23;20606;-36
2021/06/16 13:38:59;;;;;;;7.95;7.15;;;33.50;99.90;;;;;;5070484;28;20199;-37
2021/06/16 13:41:27;;;;;;;7.45;6.45;;;33.80;99.90;;;;;;5053875;28;20474;-37
2021/06/16 13:43:54;;;;;;;7.10;6.40;;;34.00;99.90;;;;;;5050508;28;20199;-37
2021/06/16 13:46:21;;;;;;;7.45;6.80;;;34.10;99.90;;;;;;5048351;28;20296;-38
2021/06/16 13:48:48;;;;;;;9.07;6.97;;;33.90;99.90;;;;;;5050430;28;20206;-38
2021/06/16 13:51:15;;;;;;;7.55;6.63;;;34.00;99.90;;;;;;5050395;28;20673;-37
2021/06/16 13:53:42;;;;;;;9.85;7.25;;;34.20;99.90;;;;;;5050096;28;20753;-37
2021/06/16 13:56:11;;;;;;;8.52;7.68;;;34.30;99.90;;;;;;5048507;28;20287;-37
2021/06/16 13:58:39;;;;;;;6.43;5.93;;;34.70;99.90;;;;;;5039832;28;20281;-37
2021/06/16 14:01:07;;;;;;;14.65;7.53;;;35.00;99.90;;;;;;5049073;28;20194;-37
2021/06/16 14:03:34;;;;;;;7.10;6.47;;;35.20;99.90;;;;;;5070249;28;20233;-37
2021/06/16 14:06:01;;;;;;;9.30;7.68;;;34.80;99.90;;;;;;5059809;28;20254;-38